CheckWX is a tool to help pilots better visualize weather data.  It is not intended as a substitute for an official pre-flight weather briefing.

09:28:39 UTC

FDSK METAR
Sikhuphe International Airport
Swaziland
Current

29 mins ago

FDSK 200900Z 03009KT 9999 FEW035 27/17 Q1014 NOSIG
Observed
Feb-20 @ 09:00 UTC
Wind
  • 030° at 9 KTS
Visibility
10,000+ meters
Flight Rules
VFR
Cloud Levels
  • Few at 3,500' AGL
Temperature
27°C / 81°F
Dewpoint
17°C / 63°F
Humidity
54%
Altimeter
29.94" Hg
Pressure
1013.92 hPa
Previous

1 hour ago

FDSK 200800Z 03009KT 9999 FEW030 26/18 Q1015 NOSIG
Observed
Feb-20 @ 08:00 UTC
Wind
  • 030° at 9 KTS
Visibility
10,000+ meters
Flight Rules
VFR
Cloud Levels
  • Few at 3,000' AGL
Temperature
26°C / 79°F
Dewpoint
18°C / 64°F
Humidity
61%
Altimeter
29.97" Hg
Pressure
1014.92 hPa
Previous

2 hours ago

FDSK 200700Z 01008KT 9999 SCT030 24/19 Q1015 NOSIG
Observed
Feb-20 @ 07:00 UTC
Wind
  • 010° at 8 KTS
Visibility
10,000+ meters
Flight Rules
VFR
Cloud Levels
  • Scattered at 3,000' AGL
Temperature
24°C / 75°F
Dewpoint
19°C / 66°F
Humidity
74%
Altimeter
29.97" Hg
Pressure
1014.92 hPa